EDT,Max TemperatureF,Mean TemperatureF,Min TemperatureF,Max Dew PointF,MeanDew PointF,Min DewpointF,Max Humidity, Mean Humidity, Min Humidity, Max Sea Level PressureIn, Mean Sea Level PressureIn, Min Sea Level PressureIn, Max VisibilityMiles, Mean VisibilityMiles, Min VisibilityMiles, Max Wind SpeedMPH, Mean Wind SpeedMPH, Max Gust SpeedMPH,PrecipitationIn, CloudCover, Events, WindDirDegrees
2013-8-1,78,69,59,66,61,56,93,72,50,29.95,29.90,29.86,10,6,1,16,6,21,0.03,6,Rain,244
2013-8-2,74,65,55,61,56,52,93,73,53,29.98,29.95,29.90,10,5,0,18,6,23,0.19,3,Fog-Rain,237
2013-8-3,77,68,59,63,59,49,93,67,41,29.99,29.95,29.91,10,6,1,16,9,23,0.18,6,Rain,269
2013-8-4,72,64,56,54,52,49,93,70,47,30.09,30.03,29.98,10,10,10,18,7,24,0.00,3,,301
2013-8-5,70,60,49,54,50,46,96,72,47,30.14,30.10,30.05,10,7,0,8,2,16,0.00,1,Fog,271
2013-8-6,79,66,53,60,54,51,93,70,46,30.07,30.04,30.01,10,9,2,10,5,15,0.00,3,,112
2013-8-7,79,71,62,67,62,59,93,80,67,30.06,30.02,29.96,10,6,0,31,6,44,0.60,5,Fog-Rain-Thunderstorm,150
2013-8-8,81,72,62,72,66,61,93,81,69,30.04,29.99,29.93,10,6,0,9,3,14,0.08,5,Fog-Rain,172
2013-8-9,77,69,61,70,67,58,97,83,69,30.01,29.93,29.89,10,5,0,14,6,21,0.30,7,Fog-Rain,267
2013-8-10,78,68,58,59,56,53,90,70,49,30.12,30.08,30.03,10,10,10,13,4,20,0.00,3,,297
2013-8-11,78,69,60,58,56,51,90,70,49,30.16,30.10,30.05,10,10,5,10,2,13,0.03,4,Rain,359
2013-8-12,79,68,57,64,59,54,93,76,58,30.07,30.02,29.89,10,8,5,14,3,20,T,3,Rain,283
2013-8-13,75,63,50,64,59,46,87,70,53,29.95,29.85,29.81,10,7,1,22,7,31,0.59,6,Rain-Thunderstorm,260
2013-8-14,68,58,48,51,48,45,93,71,48,30.15,30.03,29.94,10,10,4,15,8,23,0.00,5,,288
2013-8-15,70,58,46,53,48,44,93,69,44,30.21,30.17,30.13,10,10,6,7,2,16,0.00,1,,236
2013-8-16,76,63,49,54,50,46,89,65,41,30.21,30.18,30.14,10,8,2,8,3,20,0.00,1,,70
2013-8-17,76,64,52,55,52,49,89,66,43,30.30,30.26,30.22,10,9,5,10,5,15,0.00,1,,103
2013-8-18,71,65,58,60,56,53,84,74,63,30.28,30.23,30.17,10,10,9,13,4,16,0.00,4,,115
2013-8-19,77,69,61,63,61,56,93,79,64,30.17,30.13,30.07,10,8,2,10,2,15,0.07,7,Rain,213
2013-8-20,80,68,56,62,59,54,97,73,49,30.22,30.16,30.11,10,4,0,10,3,16,0.00,1,Fog,234
2013-8-21,83,71,58,63,59,55,93,69,45,30.25,30.18,30.08,10,5,0,10,1,17,0.00,0,Fog,102
2013-8-22,81,73,65,69,65,61,93,78,62,30.11,30.06,29.96,10,6,1,16,6,21,0.01,5,Rain-Thunderstorm,239
2013-8-23,80,70,60,63,58,51,93,67,40,30.18,30.07,30.00,10,7,2,12,5,15,0.01,3,,28
2013-8-24,80,66,52,56,51,45,93,62,30,30.34,30.29,30.20,10,10,6,9,3,12,0.00,0,,85
2013-8-25,80,67,53,58,54,50,83,63,42,30.39,30.32,30.25,10,10,10,14,5,18,0.00,1,,204
2013-8-26,82,71,60,65,61,57,90,71,51,30.25,30.13,30.00,10,9,2,16,9,22,0.04,1,Rain,248
2013-8-27,83,75,67,70,67,64,93,78,63,30.04,29.99,29.91,10,5,0,17,6,22,0.01,6,Fog-Thunderstorm,249
2013-8-28,78,73,67,70,68,66,93,82,71,29.97,29.91,29.85,10,5,1,10,3,14,0.11,7,Rain,223
2013-8-29,86,76,65,66,64,60,93,69,44,30.08,30.01,29.94,10,6,0,9,3,13,0.00,3,Fog,33
2013-8-30,85,73,61,68,64,59,93,71,48,30.05,29.96,29.85,10,8,2,15,5,21,0.00,1,,192
2013-8-31,86,77,67,70,67,66,90,75,59,29.91,29.85,29.78,10,5,1,23,6,29,0.65,5,Rain-Thunderstorm,225